createdAt,value
2022-09-05T00:01:29.123Z,12.56
2022-09-05T00:04:24.043Z,12.47
2022-09-05T00:07:00.950Z,12.37
2022-09-05T00:10:05.758Z,12.33
2022-09-05T00:12:35.682Z,12.27
2022-09-05T00:15:18.901Z,12.19
2022-09-05T00:19:22.897Z,12.12
2022-09-05T00:24:26.335Z,12.00
2022-09-05T00:24:37.160Z,11.89
2022-09-05T00:26:52.576Z,11.89
2022-09-05T00:30:00.059Z,11.84
2022-09-05T00:32:27.594Z,11.84
2022-09-05T00:35:04.669Z,11.82
2022-09-05T00:37:36.077Z,11.76
2022-09-05T00:40:22.710Z,11.69
2022-09-05T00:42:56.937Z,11.64
2022-09-05T00:45:30.959Z,11.58
2022-09-05T00:48:04.455Z,11.54
2022-09-05T00:50:39.275Z,11.47
2022-09-05T00:53:12.731Z,11.43
2022-09-05T00:55:43.534Z,11.38
2022-09-05T00:58:33.877Z,11.39
2022-09-05T01:01:21.108Z,11.39
2022-09-05T01:03:59.416Z,11.40
2022-09-05T01:06:35.971Z,11.34
2022-09-05T01:09:16.026Z,11.34
2022-09-05T01:11:52.392Z,11.36
2022-09-05T01:14:37.150Z,11.29
2022-09-05T01:17:25.500Z,11.25
2022-09-05T01:20:19.889Z,11.19
2022-09-05T01:23:11.556Z,11.21
2022-09-05T01:25:54.756Z,11.17
2022-09-05T01:29:17.657Z,11.17
2022-09-05T01:31:25.136Z,11.14
2022-09-05T01:33:58.925Z,11.11
2022-09-05T01:36:41.273Z,11.10
2022-09-05T01:40:11.155Z,11.05
2022-09-05T01:42:23.237Z,11.01
2022-09-05T01:44:57.773Z,11.07
2022-09-05T01:47:50.137Z,11.00
2022-09-05T01:50:36.054Z,10.96
2022-09-05T01:53:17.067Z,10.96
2022-09-05T01:56:04.437Z,10.87
2022-09-05T01:58:50.880Z,10.80
2022-09-05T02:01:32.459Z,10.72
2022-09-05T02:04:32.471Z,10.64
2022-09-05T02:07:30.453Z,10.57
2022-09-05T02:10:13.976Z,10.52
2022-09-05T02:12:58.507Z,10.49
2022-09-05T02:15:41.928Z,10.47
2022-09-05T02:18:25.315Z,10.40
2022-09-05T02:20:57.397Z,10.36
2022-09-05T02:23:41.193Z,10.34
2022-09-05T02:26:17.845Z,10.32
2022-09-05T02:28:54.062Z,10.25
2022-09-05T02:31:27.886Z,10.21
2022-09-05T02:34:01.885Z,10.15
2022-09-05T02:36:38.467Z,10.10
2022-09-05T02:44:24.150Z,10.08
2022-09-05T02:45:17.796Z,10.03
2022-09-05T02:45:25.820Z,10.08
2022-09-05T02:48:14.865Z,10.07
2022-09-05T02:57:23.172Z,10.07
2022-09-05T02:57:25.517Z,10.01
2022-09-05T02:57:37.620Z,9.95
2022-09-05T02:59:43.913Z,9.86
2022-09-05T03:02:26.181Z,9.78
2022-09-05T03:05:04.706Z,9.72
2022-09-05T03:07:51.994Z,9.64
2022-09-05T03:10:53.893Z,9.56
2022-09-05T03:13:54.313Z,9.51
2022-09-05T03:16:52.314Z,9.43
2022-09-05T03:19:50.227Z,9.41
2022-09-05T03:23:00.449Z,9.32
2022-09-05T03:26:17.482Z,9.27
2022-09-05T03:29:17.570Z,9.24
2022-09-05T03:32:24.126Z,9.17
2022-09-05T03:35:26.207Z,9.10
2022-09-05T03:38:13.257Z,9.07
2022-09-05T03:40:53.453Z,9.11
2022-09-05T03:43:41.181Z,9.13
2022-09-05T03:46:17.354Z,9.09
2022-09-05T03:49:24.492Z,9.05
2022-09-05T03:57:13.383Z,9.05
2022-09-05T03:57:22.793Z,9.08
2022-09-05T03:58:56.318Z,9.12
2022-09-05T04:03:20.239Z,9.08
2022-09-05T04:08:06.642Z,9.05
2022-09-05T04:08:17.617Z,9.09
2022-09-05T04:10:10.592Z,9.08
2022-09-05T04:12:48.585Z,9.07
2022-09-05T04:15:31.737Z,9.08
2022-09-05T04:18:03.844Z,9.13
2022-09-05T04:20:40.871Z,9.20
2022-09-05T04:23:17.241Z,9.24
2022-09-05T04:25:58.526Z,9.32
2022-09-05T04:28:54.017Z,9.35
2022-09-05T04:31:30.843Z,9.46
2022-09-05T04:34:06.515Z,9.54
2022-09-05T04:36:36.546Z,9.63
2022-09-05T04:39:10.622Z,9.73
2022-09-05T04:41:44.609Z,9.83
2022-09-05T04:44:16.866Z,9.93
2022-09-05T04:46:49.823Z,10.01
2022-09-05T04:49:24.480Z,10.12
2022-09-05T04:52:04.431Z,10.21
2022-09-05T04:54:36.997Z,10.33
2022-09-05T04:57:14.771Z,10.41
2022-09-05T05:02:50.656Z,10.53
2022-09-05T05:06:12.750Z,10.76
2022-09-05T05:06:16.666Z,10.67
2022-09-05T05:08:39.174Z,10.90
2022-09-05T05:15:45.516Z,11.01
2022-09-05T05:18:02.898Z,11.15
2022-09-05T05:18:13.271Z,11.24
2022-09-05T05:19:48.915Z,11.32
2022-09-05T05:22:38.236Z,11.39
2022-09-05T05:25:12.896Z,11.49
2022-09-05T05:27:45.940Z,11.59
2022-09-05T05:30:25.547Z,11.74
2022-09-05T05:32:55.376Z,11.85
2022-09-05T05:35:28.366Z,11.96
2022-09-05T05:38:01.058Z,12.04
2022-09-05T05:40:31.679Z,12.19
2022-09-05T05:43:15.284Z,12.38
2022-09-05T05:45:44.442Z,12.51
2022-09-05T05:48:29.644Z,12.65
2022-09-05T05:51:09.322Z,12.78
2022-09-05T05:53:52.171Z,12.94
2022-09-05T05:56:37.399Z,13.09
2022-09-05T05:59:56.367Z,13.30
2022-09-05T06:03:25.852Z,13.50
2022-09-05T06:06:31.588Z,13.67
2022-09-05T06:14:51.646Z,13.83
2022-09-05T06:15:01.921Z,14.01
2022-09-05T06:16:08.289Z,14.11
2022-09-05T06:19:01.978Z,14.25
2022-09-05T06:22:14.096Z,14.36
2022-09-05T06:25:26.826Z,14.44
2022-09-05T06:28:18.455Z,14.59
2022-09-05T06:30:57.185Z,14.52
2022-09-05T06:33:54.102Z,14.56
2022-09-05T06:36:44.215Z,14.62
2022-09-05T06:39:17.076Z,14.75
2022-09-05T06:42:01.536Z,14.89
2022-09-05T06:44:40.480Z,15.08
2022-09-05T06:47:23.895Z,15.16
2022-09-05T06:50:26.941Z,15.33
2022-09-05T06:53:21.052Z,15.58
2022-09-05T06:56:14.415Z,15.85
2022-09-05T06:59:30.378Z,16.00
2022-09-05T07:02:08.800Z,16.17
2022-09-05T07:05:31.421Z,16.46
2022-09-05T07:07:37.794Z,16.78
2022-09-05T07:10:37.543Z,18.12
2022-09-05T07:13:12.667Z,20.50
2022-09-05T07:15:51.327Z,21.85
2022-09-05T07:18:26.827Z,23.25
2022-09-05T07:21:17.738Z,24.59
2022-09-05T07:24:09.938Z,25.31
2022-09-05T07:26:53.694Z,26.19
2022-09-05T07:29:27.631Z,26.70
2022-09-05T07:31:57.152Z,28.14
2022-09-05T07:34:29.585Z,29.30
2022-09-05T07:37:13.860Z,29.02
2022-09-05T07:39:48.181Z,29.60
2022-09-05T07:42:21.854Z,29.14
2022-09-05T07:44:54.282Z,29.62
2022-09-05T07:47:25.320Z,29.82
2022-09-05T07:50:30.876Z,30.46
2022-09-05T07:56:51.884Z,30.47
2022-09-05T07:56:52.290Z,31.08
2022-09-05T07:58:33.567Z,32.10
2022-09-05T08:01:02.844Z,32.65
2022-09-05T08:03:31.851Z,32.79
2022-09-05T08:06:05.442Z,32.84
2022-09-05T08:08:37.464Z,33.66
2022-09-05T08:11:25.783Z,33.58
2022-09-05T08:14:32.700Z,33.00
2022-09-05T08:16:48.460Z,34.28
2022-09-05T08:19:47.989Z,35.24
2022-09-05T08:22:22.515Z,35.14
2022-09-05T08:24:59.813Z,35.20
2022-09-05T08:27:32.123Z,34.48
2022-09-05T08:30:24.857Z,31.84
2022-09-05T08:33:11.350Z,29.11
2022-09-05T08:35:44.823Z,27.55
2022-09-05T08:38:15.129Z,26.27
2022-09-05T08:40:50.340Z,25.47
2022-09-05T08:46:23.502Z,26.21
2022-09-05T08:46:41.811Z,28.16
2022-09-05T08:49:40.355Z,30.25
2022-09-05T08:52:13.646Z,31.77
2022-09-05T08:55:06.257Z,32.56
2022-09-05T08:58:00.667Z,34.16
2022-09-05T09:00:31.821Z,36.09
2022-09-05T09:03:26.428Z,37.59
2022-09-05T09:06:16.148Z,36.28
2022-09-05T09:08:56.669Z,37.33
2022-09-05T09:11:32.213Z,36.86
2022-09-05T09:14:30.796Z,35.75
2022-09-05T09:17:02.237Z,35.68
2022-09-05T09:19:47.410Z,36.72
2022-09-05T09:22:22.084Z,37.62
2022-09-05T09:25:11.927Z,38.81
2022-09-05T09:28:48.823Z,40.23
2022-09-05T09:30:59.660Z,41.34
2022-09-05T09:33:36.915Z,42.46
2022-09-05T09:36:14.784Z,41.64
2022-09-05T09:38:59.155Z,41.43
2022-09-05T09:41:53.832Z,41.35
2022-09-05T09:44:58.147Z,40.42
2022-09-05T09:47:51.579Z,40.34
2022-09-05T09:50:36.108Z,41.24
2022-09-05T09:53:24.589Z,42.61
2022-09-05T09:56:25.714Z,44.07
2022-09-05T09:59:18.356Z,45.08
2022-09-05T10:01:55.457Z,44.10
2022-09-05T10:10:39.812Z,43.84
2022-09-05T10:10:53.743Z,44.31
2022-09-05T10:11:54.263Z,44.69
2022-09-05T10:14:49.890Z,45.64
2022-09-05T10:17:29.066Z,45.61
2022-09-05T10:20:20.185Z,46.70
2022-09-05T10:23:03.057Z,45.84
2022-09-05T10:25:52.662Z,44.19
2022-09-05T10:28:27.761Z,43.86
2022-09-05T10:32:37.695Z,44.39
2022-09-05T10:35:14.308Z,44.82
2022-09-05T10:36:52.339Z,44.99
2022-09-05T10:39:24.066Z,45.72
2022-09-05T10:42:03.090Z,45.55
2022-09-05T10:44:40.673Z,44.68
2022-09-05T10:47:18.763Z,44.44
2022-09-05T10:49:50.803Z,44.03
2022-09-05T10:52:23.299Z,45.66
2022-09-05T10:55:13.798Z,45.73
2022-09-05T10:57:56.041Z,45.67
2022-09-05T11:02:19.846Z,45.59
2022-09-05T11:03:31.010Z,45.64
2022-09-05T11:06:09.138Z,45.98
2022-09-05T11:08:43.453Z,45.20
2022-09-05T11:11:26.118Z,46.33
2022-09-05T11:14:18.650Z,46.97
2022-09-05T11:17:00.279Z,47.01
2022-09-05T11:19:36.590Z,45.70
2022-09-05T11:22:22.448Z,45.70
2022-09-05T11:24:55.761Z,47.39
2022-09-05T11:27:31.086Z,47.97
2022-09-05T11:30:04.040Z,45.94
2022-09-05T11:39:48.981Z,45.69
2022-09-05T11:39:53.632Z,46.00
2022-09-05T11:40:08.461Z,46.64
2022-09-05T11:42:26.420Z,47.60
2022-09-05T11:45:10.540Z,47.32
2022-09-05T11:47:56.870Z,47.24
2022-09-05T11:50:58.396Z,46.12
2022-09-05T11:53:45.684Z,46.51
2022-09-05T11:56:42.672Z,47.31
2022-09-05T12:00:30.924Z,48.60
2022-09-05T12:03:57.389Z,49.11
2022-09-05T12:06:32.184Z,48.84
2022-09-05T12:09:06.330Z,49.23
2022-09-05T12:11:45.872Z,46.32
2022-09-05T12:14:34.814Z,45.23
2022-09-05T12:17:10.252Z,44.93
2022-09-05T12:19:54.966Z,44.50
2022-09-05T12:22:29.708Z,44.83
2022-09-05T12:27:38.396Z,46.04
2022-09-05T12:29:29.689Z,44.89
2022-09-05T12:33:03.335Z,44.63
2022-09-05T12:36:08.393Z,44.06
2022-09-05T12:40:44.838Z,44.29
2022-09-05T12:41:35.804Z,43.35
2022-09-05T12:44:29.932Z,42.72
2022-09-05T12:45:56.394Z,43.18
2022-09-05T12:48:38.665Z,43.47
2022-09-05T12:51:10.753Z,43.20
2022-09-05T12:53:46.350Z,43.52
2022-09-05T12:59:56.676Z,42.18
2022-09-05T13:03:01.348Z,42.31
2022-09-05T13:03:04.928Z,42.07
2022-09-05T13:05:02.635Z,42.49
2022-09-05T13:07:41.141Z,42.82
2022-09-05T13:14:49.601Z,39.88
2022-09-05T13:14:53.191Z,39.69
2022-09-05T13:15:59.585Z,38.41
2022-09-05T13:18:34.223Z,38.39
2022-09-05T13:21:05.460Z,38.81
2022-09-05T13:23:37.712Z,38.96
2022-09-05T13:26:12.435Z,38.88
2022-09-05T13:28:49.002Z,38.97
2022-09-05T13:37:58.605Z,37.01
2022-09-05T13:38:06.455Z,36.73
2022-09-05T13:38:20.334Z,36.60
2022-09-05T13:40:33.945Z,36.89
2022-09-05T13:43:09.815Z,36.43
2022-09-05T13:46:03.648Z,34.93
2022-09-05T13:51:33.015Z,34.65
2022-09-05T13:54:34.131Z,34.71
2022-09-05T13:57:16.510Z,34.76
2022-09-05T14:00:47.066Z,34.82
2022-09-05T14:03:38.731Z,35.04
2022-09-05T14:06:47.043Z,34.50
2022-09-05T14:09:44.696Z,34.27
2022-09-05T14:12:29.434Z,32.24
2022-09-05T14:15:10.014Z,33.00
2022-09-05T14:17:59.878Z,33.61
2022-09-05T14:20:49.910Z,33.69
2022-09-05T14:23:20.563Z,33.57
2022-09-05T14:25:52.498Z,34.07
2022-09-05T14:28:27.082Z,34.25
2022-09-05T14:35:00.731Z,34.11
2022-09-05T14:37:35.331Z,34.70
2022-09-05T14:37:55.499Z,35.78
2022-09-05T14:40:36.892Z,34.97
2022-09-05T14:43:30.986Z,34.92
2022-09-05T14:46:13.598Z,34.46
2022-09-05T14:49:18.133Z,34.64
2022-09-05T14:51:48.059Z,33.79
2022-09-05T15:00:25.561Z,30.80
2022-09-05T15:02:46.197Z,28.89
2022-09-05T15:03:03.719Z,28.58
2022-09-05T15:05:41.511Z,29.95
2022-09-05T15:08:38.220Z,30.59
2022-09-05T15:12:21.894Z,32.22
2022-09-05T15:13:58.290Z,33.60
2022-09-05T15:16:27.275Z,35.26
2022-09-05T15:18:58.528Z,36.60
2022-09-05T15:21:34.928Z,37.94
2022-09-05T15:24:17.249Z,38.55
2022-09-05T15:26:53.140Z,38.24
2022-09-05T15:29:24.563Z,38.53
2022-09-05T15:32:03.891Z,39.28
2022-09-05T15:34:39.602Z,40.30
2022-09-05T15:37:30.712Z,41.63
2022-09-05T15:40:07.402Z,41.83
2022-09-05T15:42:52.502Z,41.97
2022-09-05T15:45:27.158Z,42.01
2022-09-05T15:48:05.526Z,42.06
2022-09-05T15:50:40.861Z,42.76
2022-09-05T15:53:15.566Z,42.89
2022-09-05T15:55:50.419Z,41.31
2022-09-05T15:58:29.954Z,41.62
2022-09-05T16:01:48.531Z,41.29
2022-09-05T16:10:18.166Z,41.06
2022-09-05T16:10:35.757Z,39.72
2022-09-05T16:10:58.329Z,39.19
2022-09-05T16:12:46.148Z,38.88
2022-09-05T16:17:15.562Z,37.49
2022-09-05T16:23:13.911Z,36.26
2022-09-05T16:23:25.848Z,36.46
2022-09-05T16:23:58.063Z,33.90
2022-09-05T16:26:34.536Z,30.98
2022-09-05T16:29:06.879Z,28.30
2022-09-05T16:31:40.075Z,26.23
2022-09-05T16:34:17.716Z,24.95
2022-09-05T16:37:07.855Z,23.72
2022-09-05T16:39:38.947Z,22.69
2022-09-05T16:42:19.171Z,21.62
2022-09-05T16:44:52.083Z,21.12
2022-09-05T16:47:25.695Z,20.68
2022-09-05T16:50:00.266Z,20.37
2022-09-05T16:52:35.463Z,20.03
2022-09-05T16:55:10.021Z,19.77
2022-09-05T16:57:55.794Z,19.57
2022-09-05T17:00:26.822Z,19.29
2022-09-05T17:02:59.902Z,19.06
2022-09-05T17:05:33.580Z,18.78
2022-09-05T17:08:05.784Z,18.49
2022-09-05T17:10:42.682Z,18.26
2022-09-05T17:13:16.616Z,18.09
2022-09-05T17:15:52.019Z,17.99
2022-09-05T17:18:25.890Z,17.92
2022-09-05T17:20:58.621Z,17.79
2022-09-05T17:27:33.898Z,17.64
2022-09-05T17:29:35.094Z,17.51
2022-09-05T17:31:14.554Z,17.43
2022-09-05T17:32:41.903Z,17.33
2022-09-05T17:35:42.956Z,17.16
2022-09-05T17:38:39.495Z,17.01
2022-09-05T17:41:37.312Z,16.87
2022-09-05T17:44:11.600Z,16.82
2022-09-05T17:46:51.210Z,16.73
2022-09-05T17:49:42.989Z,16.64
2022-09-05T17:52:29.540Z,16.50
2022-09-05T17:54:59.975Z,16.34
2022-09-05T17:57:41.611Z,16.28
2022-09-05T18:00:44.632Z,16.20
2022-09-05T18:04:16.436Z,16.07
2022-09-05T18:07:00.298Z,15.92
2022-09-05T18:13:31.693Z,15.70
2022-09-05T18:16:08.282Z,15.72
2022-09-05T18:19:33.590Z,15.61
2022-09-05T18:21:49.765Z,15.43
2022-09-05T18:24:32.695Z,15.30
2022-09-05T18:27:29.438Z,15.21
2022-09-05T18:30:06.073Z,15.12
2022-09-05T18:32:47.305Z,15.05
2022-09-05T18:35:32.440Z,15.00
2022-09-05T18:38:51.640Z,14.97
2022-09-05T18:41:21.762Z,14.89
2022-09-05T18:44:13.152Z,14.93
2022-09-05T18:46:50.678Z,14.84
2022-09-05T18:50:21.752Z,14.80
2022-09-05T18:52:23.849Z,14.73
2022-09-05T18:56:11.346Z,14.69
2022-09-05T18:57:49.406Z,14.68
2022-09-05T19:00:24.919Z,14.64
2022-09-05T19:03:06.741Z,14.64
2022-09-05T19:05:39.308Z,14.55
2022-09-05T19:08:29.080Z,14.49
2022-09-05T19:11:01.918Z,14.43
2022-09-05T19:13:57.778Z,14.38
2022-09-05T19:16:43.041Z,14.31
2022-09-05T19:19:16.454Z,14.21
2022-09-05T19:21:56.279Z,14.13
2022-09-05T19:24:45.621Z,14.07
2022-09-05T19:28:57.046Z,14.05
2022-09-05T19:36:51.245Z,13.98
2022-09-05T19:36:57.862Z,14.02
2022-09-05T19:37:04.359Z,13.99
2022-09-05T19:40:46.681Z,13.95
2022-09-05T19:47:26.645Z,13.95
2022-09-05T19:47:39.634Z,13.94
2022-09-05T19:50:31.174Z,14.01
2022-09-05T19:53:08.967Z,14.03
2022-09-05T19:55:38.909Z,13.99
2022-09-05T19:58:20.267Z,13.94
2022-09-05T20:01:02.183Z,13.90
2022-09-05T20:03:39.129Z,13.84
2022-09-05T20:06:29.115Z,13.79
2022-09-05T20:09:09.724Z,13.76
2022-09-05T20:11:45.630Z,13.77
2022-09-05T20:14:22.275Z,13.90
2022-09-05T20:16:51.784Z,13.97
2022-09-05T20:19:28.671Z,14.03
2022-09-05T20:22:12.779Z,14.04
2022-09-05T20:24:49.570Z,13.95
2022-09-05T20:27:18.559Z,13.90
2022-09-05T20:29:55.792Z,13.90
2022-09-05T20:32:39.413Z,13.86
2022-09-05T20:38:20.471Z,13.79
2022-09-05T20:43:14.514Z,13.69
2022-09-05T20:43:31.288Z,13.61
2022-09-05T20:43:52.508Z,13.51
2022-09-05T20:51:10.638Z,13.46
2022-09-05T20:54:10.094Z,13.43
2022-09-05T20:54:27.969Z,13.38
2022-09-05T20:55:38.882Z,13.39
2022-09-05T20:58:13.605Z,13.36
2022-09-05T21:01:15.540Z,13.22
2022-09-05T21:03:41.553Z,13.13
2022-09-05T21:06:22.191Z,13.06
2022-09-05T21:08:52.239Z,12.98
2022-09-05T21:11:30.417Z,13.04
2022-09-05T21:14:02.170Z,12.95
2022-09-05T21:16:32.775Z,12.82
2022-09-05T21:19:03.203Z,12.69
2022-09-05T21:21:32.513Z,12.60
2022-09-05T21:24:16.842Z,12.52
2022-09-05T21:26:49.301Z,12.49
2022-09-05T21:29:27.223Z,12.44
2022-09-05T21:32:02.095Z,12.35
2022-09-05T21:34:35.475Z,12.32
2022-09-05T21:37:07.083Z,12.25
2022-09-05T21:39:40.326Z,12.20
2022-09-05T21:46:04.617Z,12.17
2022-09-05T21:47:37.838Z,12.14
2022-09-05T21:48:02.773Z,12.12
2022-09-05T21:50:40.091Z,12.04
2022-09-05T21:54:42.620Z,11.98
2022-09-05T21:59:17.640Z,11.90
2022-09-05T21:59:33.587Z,11.82
2022-09-05T22:01:52.487Z,11.80
2022-09-05T22:04:24.826Z,11.76
2022-09-05T22:06:57.674Z,11.74
2022-09-05T22:09:26.478Z,11.70
2022-09-05T22:11:55.214Z,11.64
2022-09-05T22:14:25.879Z,11.59
2022-09-05T22:16:57.643Z,11.56
2022-09-05T22:19:37.138Z,11.54
2022-09-05T22:22:17.187Z,11.48
2022-09-05T22:24:57.302Z,11.41
2022-09-05T22:27:30.210Z,11.38
2022-09-05T22:29:58.951Z,11.36
2022-09-05T22:32:34.529Z,11.32
2022-09-05T22:35:15.942Z,11.28
2022-09-05T22:38:03.510Z,11.23
2022-09-05T22:40:34.264Z,11.22
2022-09-05T22:43:05.240Z,11.21
2022-09-05T22:45:35.959Z,11.19
2022-09-05T22:48:08.691Z,11.17
2022-09-05T22:50:37.447Z,11.15
2022-09-05T22:53:08.722Z,11.13
2022-09-05T22:55:37.606Z,11.15
2022-09-05T22:58:07.292Z,11.14
2022-09-05T23:00:36.339Z,11.07
2022-09-05T23:03:06.746Z,11.01
2022-09-05T23:05:35.305Z,10.99
2022-09-05T23:08:05.887Z,10.93
2022-09-05T23:10:36.433Z,10.91
2022-09-05T23:13:06.668Z,10.91
2022-09-05T23:15:35.640Z,10.84
2022-09-05T23:18:05.249Z,10.80
2022-09-05T23:20:35.059Z,10.74
2022-09-05T23:23:05.930Z,10.68
2022-09-05T23:25:35.647Z,10.65
2022-09-05T23:28:07.078Z,10.60
2022-09-05T23:30:36.132Z,10.55
2022-09-05T23:33:06.799Z,10.49
2022-09-05T23:35:35.754Z,10.43
2022-09-05T23:38:04.594Z,10.39
2022-09-05T23:40:33.015Z,10.37
2022-09-05T23:43:03.401Z,10.33
2022-09-05T23:45:32.626Z,10.32
2022-09-05T23:48:01.679Z,10.26
2022-09-05T23:50:30.262Z,10.22
2022-09-05T23:53:03.726Z,10.15
2022-09-05T23:55:32.935Z,10.09
2022-09-05T23:58:03.091Z,10.06
